Time;durP1;ratioP1;P1;durP2;ratioP2;P2;SDS_P1;SDS_P2;PMS_P1;PMS_P2;Temp;Humidity;BMP_temperature;BMP_pressure;BME280_temperature;BME280_humidity;BME280_pressure;Samples;Min_cycle;Max_cycle;Signal;HPM_P1;HPM_P2
2021/03/04 00:01:21;;;;;;;0.30;0.20;;;;;;;5.86;100.00;100957.75;5051702;28;20450;-53
2021/03/04 00:03:48;;;;;;;0.30;0.20;;;;;;;5.82;100.00;100956.88;5050430;28;20458;-53
2021/03/04 00:06:14;;;;;;;1.73;1.70;;;;;;;5.74;100.00;100960.38;5051430;28;20527;-53
2021/03/04 00:08:42;;;;;;;0.43;0.43;;;;;;;5.73;100.00;100962.13;5054439;28;20450;-53
2021/03/04 00:11:09;;;;;;;0.30;0.20;;;;;;;5.74;100.00;100955.09;5055100;28;20455;-53
2021/03/04 00:13:35;;;;;;;0.30;0.30;;;;;;;5.75;100.00;100952.47;5054936;28;20855;-53
2021/03/04 00:16:01;;;;;;;0.50;0.37;;;;;;;5.69;100.00;100960.38;5055333;28;20971;-53
2021/03/04 00:18:28;;;;;;;0.30;0.10;;;;;;;5.79;100.00;100956.88;5053543;28;20596;-53
2021/03/04 00:20:54;;;;;;;0.30;0.20;;;;;;;5.75;100.00;100954.22;5055189;28;20471;-53
2021/03/04 00:23:20;;;;;;;0.30;0.17;;;;;;;5.64;100.00;100955.09;5054885;28;20975;-53
2021/03/04 00:25:46;;;;;;;0.30;0.20;;;;;;;5.64;100.00;100956.84;5054823;28;20545;-53
2021/03/04 00:28:13;;;;;;;0.30;0.20;;;;;;;5.62;100.00;100951.59;5054848;28;20451;-53
2021/03/04 00:30:39;;;;;;;0.30;0.20;;;;;;;5.62;100.00;100946.31;5054756;28;20450;-52
2021/03/04 00:33:06;;;;;;;0.30;0.20;;;;;;;5.58;100.00;100949.78;5054757;28;20455;-53
2021/03/04 00:35:33;;;;;;;0.30;0.20;;;;;;;5.64;100.00;100949.81;5054695;28;20446;-53
2021/03/04 00:37:59;;;;;;;0.30;0.17;;;;;;;5.55;100.00;100939.25;5048779;28;20520;-53
2021/03/04 00:40:26;;;;;;;0.30;0.20;;;;;;;5.48;100.00;100937.50;5047421;28;20451;-52
2021/03/04 00:42:52;;;;;;;0.40;0.20;;;;;;;5.43;100.00;100939.22;5054558;28;20457;-53
2021/03/04 00:45:21;;;;;;;0.30;0.20;;;;;;;5.47;100.00;100933.06;5050454;28;20451;-53
2021/03/04 00:48:08;;;;;;;5.30;1.03;;;;;;;5.38;100.00;100934.81;5032649;28;20443;-53
2021/03/04 00:50:36;;;;;;;0.30;0.20;;;;;;;5.33;100.00;100934.78;5054488;28;20512;-53
2021/03/04 00:53:02;;;;;;;0.30;0.20;;;;;;;5.31;100.00;100924.25;5054465;28;20500;-53
2021/03/04 00:55:30;;;;;;;0.30;0.20;;;;;;;5.26;100.00;100927.75;5054164;28;20451;-53
2021/03/04 00:57:56;;;;;;;0.30;0.20;;;;;;;5.29;100.00;100926.00;5054253;28;20487;-53
2021/03/04 01:00:22;;;;;;;0.30;0.10;;;;;;;5.32;100.00;100915.44;5054025;28;20451;-53
2021/03/04 01:02:48;;;;;;;0.30;0.20;;;;;;;5.22;100.00;100926.88;5054447;28;20447;-53
2021/03/04 01:05:15;;;;;;;0.30;0.20;;;;;;;5.23;100.00;100919.84;5054139;28;20453;-52
2021/03/04 01:07:41;;;;;;;0.30;0.13;;;;;;;5.21;100.00;100916.31;5054181;28;20471;-53
2021/03/04 01:10:14;;;;;;;0.30;0.20;;;;;;;5.20;100.00;100909.25;5054067;28;20446;-53
2021/03/04 01:12:41;;;;;;;0.30;0.20;;;;;;;5.22;100.00;100903.16;5052762;28;21105;-53
2021/03/04 01:15:13;;;;;;;19.93;1.60;;;;;;;5.24;100.00;100898.75;5053770;28;20870;-53
2021/03/04 01:17:40;;;;;;;0.30;0.20;;;;;;;5.30;100.00;100892.59;5053690;28;20490;-53
2021/03/04 01:20:12;;;;;;;0.30;0.20;;;;;;;5.28;100.00;100892.59;5053719;28;20446;-53
2021/03/04 01:22:39;;;;;;;0.30;0.20;;;;;;;5.15;100.00;100889.94;5054077;28;20530;-53
2021/03/04 01:25:07;;;;;;;0.30;0.20;;;;;;;5.19;100.00;100883.78;5053723;28;20573;-52
2021/03/04 01:27:34;;;;;;;0.30;0.20;;;;;;;5.17;100.00;100880.28;5053524;28;20462;-53
2021/03/04 01:30:01;;;;;;;0.30;0.20;;;;;;;5.09;100.00;100882.91;5053787;28;20493;-53
2021/03/04 01:32:27;;;;;;;0.30;0.20;;;;;;;4.96;100.00;100874.06;5041121;28;20447;-53
2021/03/04 01:34:53;;;;;;;1.00;0.90;;;;;;;4.98;100.00;100871.44;5053303;28;20534;-53
2021/03/04 01:37:20;;;;;;;0.30;0.20;;;;;;;4.95;100.00;100871.44;5053022;28;20486;-53
2021/03/04 01:39:46;;;;;;;0.30;0.20;;;;;;;4.96;100.00;100862.66;5040825;28;20450;-53
2021/03/04 01:42:12;;;;;;;0.30;0.20;;;;;;;4.88;100.00;100865.25;5053289;28;20450;-53
2021/03/04 01:44:38;;;;;;;0.30;0.20;;;;;;;4.85;100.00;100864.38;5053399;28;20450;-53
2021/03/04 01:47:05;;;;;;;0.30;0.20;;;;;;;4.84;100.00;100859.97;5048227;28;20574;-53
2021/03/04 01:49:32;;;;;;;0.30;0.13;;;;;;;4.81;100.00;100862.59;5053818;28;20458;-53
2021/03/04 01:51:58;;;;;;;0.27;0.20;;;;;;;4.78;100.00;100862.56;5053189;28;20458;-53
2021/03/04 01:54:25;;;;;;;0.30;0.10;;;;;;;4.70;100.00;100857.28;5053161;28;20442;-53
2021/03/04 01:56:51;;;;;;;0.30;0.20;;;;;;;4.69;100.00;100851.13;5052858;28;20501;-53
2021/03/04 01:59:18;;;;;;;0.30;0.10;;;;;;;4.65;100.00;100853.72;5053346;28;20451;-52
2021/03/04 02:01:44;;;;;;;0.30;0.20;;;;;;;4.49;100.00;100844.88;5053090;28;20508;-53
2021/03/04 02:04:11;;;;;;;0.30;0.20;;;;;;;4.55;100.00;100836.16;5053121;28;20477;-53
2021/03/04 02:06:56;;;;;;;0.67;0.67;;;;;;;4.48;100.00;100843.13;5052770;28;21062;-53
2021/03/04 02:09:25;;;;;;;0.30;0.20;;;;;;;4.47;100.00;100842.25;5052958;28;20451;-52
2021/03/04 02:11:56;;;;;;;0.30;0.20;;;;;;;4.56;100.00;100836.16;5052983;28;20454;-53
2021/03/04 02:14:30;;;;;;;0.30;0.20;;;;;;;4.60;100.00;100831.78;5052795;28;20951;-52
2021/03/04 02:17:01;;;;;;;0.27;0.17;;;;;;;4.65;100.00;100830.03;5052725;28;20487;-53
2021/03/04 02:19:32;;;;;;;0.30;0.17;;;;;;;4.67;100.00;100830.94;5052574;28;20446;-52
2021/03/04 02:22:36;;;;;;;0.30;0.20;;;;;;;4.58;100.00;100833.53;5052800;28;20467;-53
2021/03/04 02:25:32;;;;;;;0.30;0.10;;;;;;;4.57;100.00;100832.66;5052689;28;20446;-53
2021/03/04 02:28:01;;;;;;;0.30;0.10;;;;;;;4.47;100.00;100820.31;5052736;28;20940;-53
2021/03/04 02:30:32;;;;;;;0.30;0.20;;;;;;;4.61;100.00;100823.88;5052349;28;20461;-53
2021/03/04 02:33:04;;;;;;;0.30;0.20;;;;;;;4.45;100.00;100817.69;5052660;28;20447;-53
2021/03/04 02:35:34;;;;;;;0.27;0.20;;;;;;;4.37;100.00;100821.13;5052501;28;20439;-53
2021/03/04 02:38:04;;;;;;;0.30;0.23;;;;;;;4.49;100.00;100822.94;5046234;28;20483;-53
2021/03/04 02:40:32;;;;;;;0.30;0.10;;;;;;;4.14;100.00;100824.53;5045842;28;20455;-53
2021/03/04 02:43:03;;;;;;;0.30;0.20;;;;;;;4.14;100.00;100808.75;5052643;28;20535;-53
2021/03/04 02:45:30;;;;;;;0.30;0.10;;;;;;;4.10;100.00;100800.81;5045708;28;20451;-53
2021/03/04 02:47:56;;;;;;;0.30;0.10;;;;;;;3.95;100.00;100798.09;5052530;28;20451;-52
2021/03/04 02:50:25;;;;;;;0.20;0.20;;;;;;;4.01;100.00;100793.75;5052194;28;20458;-53
2021/03/04 02:52:52;;;;;;;0.20;0.10;;;;;;;3.95;100.00;100793.72;5052185;28;20451;-53
2021/03/04 02:55:20;;;;;;;0.30;0.10;;;;;;;3.90;100.00;100792.81;5052418;28;20504;-53
2021/03/04 02:57:48;;;;;;;0.30;0.20;;;;;;;3.95;100.00;100788.44;5052399;28;21080;-53
2021/03/04 03:00:19;;;;;;;0.30;0.10;;;;;;;3.91;100.00;100791.94;5052087;28;20457;-53
2021/03/04 03:02:46;;;;;;;0.30;0.10;;;;;;;3.98;100.00;100793.75;5051106;28;21002;-53
2021/03/04 03:05:14;;;;;;;0.30;0.20;;;;;;;4.02;100.00;100792.91;5051905;28;20546;-53
2021/03/04 03:07:42;;;;;;;0.30;0.20;;;;;;;3.90;100.00;100786.69;5052305;28;20467;-52
2021/03/04 03:10:12;;;;;;;0.20;0.10;;;;;;;3.85;100.00;100784.91;5052249;28;20520;-52
2021/03/04 03:12:41;;;;;;;0.30;0.20;;;;;;;4.04;100.00;100775.38;5052302;28;20462;-52
2021/03/04 03:15:09;;;;;;;0.60;0.60;;;;;;;4.06;100.00;100778.00;5052131;28;20446;-53
2021/03/04 03:17:36;;;;;;;0.27;0.17;;;;;;;4.01;100.00;100775.34;5051877;28;20501;-53
2021/03/04 03:20:06;;;;;;;0.30;0.30;;;;;;;4.02;100.00;100785.00;5051863;28;20530;-53
2021/03/04 03:22:32;;;;;;;0.30;0.10;;;;;;;4.01;100.00;100777.09;5051998;28;20450;-53
2021/03/04 03:24:58;;;;;;;0.40;0.40;;;;;;;3.98;100.00;100775.34;5052023;28;20447;-53
2021/03/04 03:27:26;;;;;;;0.20;0.10;;;;;;;4.18;100.00;100771.94;5052040;28;20520;-53
2021/03/04 03:29:54;;;;;;;0.20;0.10;;;;;;;4.26;100.00;100781.63;5051897;28;20927;-53
2021/03/04 03:32:22;;;;;;;0.83;0.83;;;;;;;4.31;100.00;100776.38;5051777;28;20947;-53
2021/03/04 03:34:49;;;;;;;0.30;0.20;;;;;;;4.33;100.00;100780.78;5052004;28;20458;-52
2021/03/04 03:37:17;;;;;;;0.20;0.10;;;;;;;4.41;100.00;100788.72;5051959;28;20536;-53
2021/03/04 03:39:44;;;;;;;0.30;0.20;;;;;;;4.34;100.00;100776.38;5025499;28;20469;-53
2021/03/04 03:42:11;;;;;;;0.30;0.30;;;;;;;4.55;100.00;100768.59;5051927;28;20463;-53
2021/03/04 03:44:38;;;;;;;0.20;0.20;;;;;;;4.61;100.00;100757.19;5055721;28;20451;-53
2021/03/04 03:47:06;;;;;;;0.40;0.40;;;;;;;4.65;100.00;100746.66;5050616;28;20540;-52
2021/03/04 03:49:33;;;;;;;0.30;0.20;;;;;;;4.84;100.00;100760.78;5055758;28;20466;-53
2021/03/04 03:52:02;;;;;;;0.23;0.10;;;;;;;4.74;100.00;100751.97;5055469;28;20951;-53
2021/03/04 03:54:29;;;;;;;0.20;0.20;;;;;;;4.79;100.00;100751.97;5055687;28;20450;-53
2021/03/04 03:56:56;;;;;;;0.20;0.10;;;;;;;4.71;100.00;100746.69;5055236;28;20528;-53
2021/03/04 03:59:24;;;;;;;0.70;0.70;;;;;;;4.98;100.00;100739.72;5055341;28;20454;-53
2021/03/04 04:01:51;;;;;;;0.20;0.20;;;;;;;4.98;100.00;100739.72;5054070;28;20451;-53
2021/03/04 04:04:18;;;;;;;0.50;0.50;;;;;;;4.94;100.00;100749.41;5055540;28;20450;-53
2021/03/04 04:06:45;;;;;;;0.30;0.10;;;;;;;4.99;100.00;100759.94;5055331;28;20475;-53
2021/03/04 04:09:12;;;;;;;0.30;0.10;;;;;;;4.96;100.00;100757.28;5055164;28;20508;-52
2021/03/04 04:11:38;;;;;;;0.30;0.20;;;;;;;4.88;100.00;100757.25;5055124;28;20451;-53
2021/03/04 04:14:05;;;;;;;0.20;0.17;;;;;;;5.03;100.00;100737.97;5055058;28;20936;-53
2021/03/04 04:16:32;;;;;;;0.30;0.20;;;;;;;5.00;100.00;100730.06;5054968;28;20474;-53
2021/03/04 04:18:59;;;;;;;0.30;0.17;;;;;;;4.91;100.00;100717.75;5054971;28;20574;-53
2021/03/04 04:21:26;;;;;;;0.70;0.70;;;;;;;4.96;100.00;100718.66;5055024;28;20451;-53
2021/03/04 04:23:53;;;;;;;0.30;0.20;;;;;;;4.98;100.00;100714.28;5045994;28;20533;-53
2021/03/04 04:26:20;;;;;;;0.30;0.10;;;;;;;5.05;100.00;100718.66;5050841;28;20524;-52
2021/03/04 04:28:46;;;;;;;0.97;0.97;;;;;;;4.96;100.00;100715.16;5054860;28;20477;-52
2021/03/04 04:31:13;;;;;;;0.27;0.17;;;;;;;5.00;100.00;100728.31;5054895;28;20936;-52
2021/03/04 04:33:39;;;;;;;0.30;0.10;;;;;;;5.00;100.00;100725.69;5054921;28;20455;-52
2021/03/04 04:36:06;;;;;;;0.30;0.20;;;;;;;4.91;100.00;100717.75;5054614;28;20469;-52
2021/03/04 04:38:33;;;;;;;0.30;0.20;;;;;;;5.03;100.00;100719.53;5044399;28;20484;-52
2021/03/04 04:40:59;;;;;;;3.03;2.83;;;;;;;5.02;100.00;100716.00;5051644;28;20451;-52
2021/03/04 04:43:26;;;;;;;0.30;0.20;;;;;;;5.05;100.00;100726.56;5054500;28;20443;-52
2021/03/04 04:45:52;;;;;;;0.30;0.20;;;;;;;4.94;100.00;100730.06;5049104;28;20479;-52
2021/03/04 04:48:19;;;;;;;0.30;0.20;;;;;;;4.86;100.00;100730.06;5054644;28;20522;-52
2021/03/04 04:51:05;;;;;;;0.30;0.30;;;;;;;4.98;100.00;100718.66;5054175;28;20537;-52
2021/03/04 04:53:32;;;;;;;0.20;0.10;;;;;;;4.62;100.00;100722.09;5036967;28;20468;-52
2021/03/04 04:55:58;;;;;;;0.30;0.10;;;;;;;4.67;100.00;100710.72;5048119;28;20984;-52
2021/03/04 04:58:24;;;;;;;0.30;0.10;;;;;;;4.82;100.00;100711.63;5054264;28;20494;-52
2021/03/04 05:00:50;;;;;;;0.23;0.10;;;;;;;4.84;100.00;100710.75;5054375;28;20549;-52
2021/03/04 05:03:17;;;;;;;0.30;0.10;;;;;;;4.87;100.00;100705.47;5054196;28;20529;-52
2021/03/04 05:05:43;;;;;;;0.20;0.10;;;;;;;4.87;100.00;100705.47;5054103;28;20447;-52
2021/03/04 05:08:10;;;;;;;0.30;0.10;;;;;;;4.97;100.00;100709.88;5054381;28;20522;-52
2021/03/04 05:10:36;;;;;;;0.30;0.20;;;;;;;5.01;100.00;100709.00;5054033;28;20450;-52
2021/03/04 05:13:02;;;;;;;0.23;0.10;;;;;;;5.08;100.00;100712.53;5054124;28;20451;-52
2021/03/04 05:15:29;;;;;;;0.30;0.20;;;;;;;5.21;100.00;100714.28;5054086;28;20451;-52
2021/03/04 05:17:55;;;;;;;0.20;0.20;;;;;;;5.14;100.00;100720.41;5053891;28;20536;-52
2021/03/04 05:20:21;;;;;;;0.30;0.20;;;;;;;5.02;100.00;100717.78;5054115;28;20516;-52
2021/03/04 05:22:47;;;;;;;0.30;0.10;;;;;;;4.98;100.00;100722.16;5053585;28;20940;-52
2021/03/04 05:25:14;;;;;;;0.97;0.97;;;;;;;4.93;100.00;100716.00;5054136;28;20450;-52
2021/03/04 05:27:40;;;;;;;0.20;0.10;;;;;;;5.01;100.00;100706.34;5053592;28;20459;-52
2021/03/04 05:30:07;;;;;;;0.30;0.20;;;;;;;4.88;100.00;100709.84;5053912;28;20455;-52
2021/03/04 05:32:34;;;;;;;0.30;0.20;;;;;;;4.78;100.00;100701.94;5053515;28;20835;-52
2021/03/04 05:35:01;;;;;;;0.20;0.10;;;;;;;4.77;100.00;100690.53;5053769;28;20481;-52
2021/03/04 05:37:27;;;;;;;0.30;0.10;;;;;;;4.93;100.00;100692.28;5052430;28;20495;-52
2021/03/04 05:39:53;;;;;;;0.20;0.10;;;;;;;4.95;100.00;100702.84;5041437;28;20504;-52
2021/03/04 05:42:20;;;;;;;2.07;2.00;;;;;;;5.04;100.00;100702.84;5053330;28;20466;-52
2021/03/04 05:44:46;;;;;;;0.20;0.10;;;;;;;5.06;100.00;100701.97;5053519;28;20446;-52
2021/03/04 05:47:13;;;;;;;0.30;0.20;;;;;;;5.10;100.00;100689.69;5048345;28;20505;-52
2021/03/04 05:49:47;;;;;;;0.20;0.20;;;;;;;5.22;100.00;100689.69;5053296;28;20462;-52
2021/03/04 05:52:17;;;;;;;0.30;0.20;;;;;;;5.14;100.00;100682.66;5053206;28;20443;-52
2021/03/04 05:54:45;;;;;;;0.70;0.70;;;;;;;5.05;100.00;100680.88;5053100;28;20454;-52
2021/03/04 05:57:14;;;;;;;0.30;0.20;;;;;;;4.96;100.00;100689.69;5052955;28;20490;-52
2021/03/04 05:59:41;;;;;;;0.20;0.20;;;;;;;4.84;100.00;100679.13;5053252;28;20504;-52
2021/03/04 06:02:08;;;;;;;0.20;0.10;;;;;;;4.66;100.00;100685.28;5052953;28;20958;-52
2021/03/04 06:04:34;;;;;;;0.30;0.10;;;;;;;4.67;100.00;100686.16;5052659;28;20477;-52
2021/03/04 06:07:00;;;;;;;0.20;0.10;;;;;;;4.72;100.00;100679.13;5052573;28;20467;-52
2021/03/04 06:09:28;;;;;;;0.30;0.20;;;;;;;4.83;100.00;100681.78;5053278;28;20457;-52
2021/03/04 06:12:04;;;;;;;0.30;0.20;;;;;;;4.85;100.00;100680.00;5052898;28;20454;-52
2021/03/04 06:14:32;;;;;;;0.30;0.20;;;;;;;4.81;100.00;100688.78;5052822;28;20443;-52
2021/03/04 06:17:18;;;;;;;0.20;0.10;;;;;;;4.93;100.00;100684.38;5052883;28;20471;-52
2021/03/04 06:19:55;;;;;;;0.20;0.10;;;;;;;4.91;100.00;100674.75;5052578;28;20443;-52
2021/03/04 06:22:29;;;;;;;0.30;0.30;;;;;;;4.84;100.00;100670.34;5052944;28;20454;-52
2021/03/04 06:24:58;;;;;;;0.30;0.20;;;;;;;4.92;100.00;100661.56;5052783;28;20447;-52
2021/03/04 06:27:29;;;;;;;0.30;0.20;;;;;;;4.85;100.00;100661.56;5052526;28;20471;-52
2021/03/04 06:30:00;;;;;;;0.20;0.20;;;;;;;4.87;100.00;100647.53;5052636;28;20458;-52
2021/03/04 06:32:27;;;;;;;0.20;0.10;;;;;;;4.87;100.00;100650.16;5052891;28;20446;-52
2021/03/04 06:35:20;;;;;;;0.30;0.20;;;;;;;4.83;100.00;100647.53;5052694;28;20454;-52
2021/03/04 06:37:47;;;;;;;0.20;0.20;;;;;;;4.83;100.00;100647.53;5046485;28;20989;-52
2021/03/04 06:40:18;;;;;;;0.27;0.20;;;;;;;4.78;100.00;100642.25;5043458;28;20569;-52
2021/03/04 06:42:45;;;;;;;0.40;0.40;;;;;;;4.67;100.00;100646.66;5052413;28;20465;-52
2021/03/04 06:45:31;;;;;;;0.30;0.10;;;;;;;4.57;100.00;100655.41;5049474;28;20448;-52
2021/03/04 06:48:12;;;;;;;0.20;0.10;;;;;;;4.64;100.00;100651.88;5040341;28;20484;-52
2021/03/04 06:50:41;;;;;;;0.20;0.20;;;;;;;4.58;100.00;100647.50;5052456;28;20505;-52
2021/03/04 06:53:18;;;;;;;0.20;0.17;;;;;;;4.51;100.00;100639.59;5052270;28;20509;-52
2021/03/04 06:55:50;;;;;;;0.30;0.30;;;;;;;4.59;100.00;100646.63;5052033;28;20454;-52
2021/03/04 06:58:27;;;;;;;0.23;0.10;;;;;;;4.67;100.00;100654.56;5052173;28;20497;-52
2021/03/04 07:01:14;;;;;;;1.13;1.13;;;;;;;4.70;100.00;100651.91;5027893;28;20438;-52
2021/03/04 07:03:49;;;;;;;0.30;0.20;;;;;;;4.71;100.00;100651.91;5052355;28;20485;-52
2021/03/04 07:06:34;;;;;;;0.20;0.20;;;;;;;4.71;100.00;100651.03;5051996;28;20474;-52
2021/03/04 07:09:01;;;;;;;0.30;0.20;;;;;;;4.75;100.00;100648.41;5051983;28;20458;-52
2021/03/04 07:11:29;;;;;;;0.20;0.10;;;;;;;4.80;100.00;100653.69;5052431;28;20446;-52
2021/03/04 07:13:56;;;;;;;5.00;1.80;;;;;;;4.86;100.00;100643.13;5052368;28;20451;-52
2021/03/04 07:16:24;;;;;;;0.20;0.10;;;;;;;4.86;100.00;100645.78;5052606;28;20512;-52
2021/03/04 07:18:55;;;;;;;0.67;0.67;;;;;;;4.97;100.00;100641.41;5056195;28;20494;-52
2021/03/04 07:21:23;;;;;;;0.20;0.20;;;;;;;5.01;100.00;100629.97;5055883;28;21005;-52
2021/03/04 07:23:50;;;;;;;0.27;0.20;;;;;;;5.19;100.00;100618.53;5056018;28;20451;-52
2021/03/04 07:26:18;;;;;;;0.30;0.20;;;;;;;5.38;100.00;100624.66;5056033;28;20467;-52
2021/03/04 07:28:46;;;;;;;1.37;0.50;;;;;;;5.56;100.00;100623.72;5056180;28;20893;-52
2021/03/04 07:31:14;;;;;;;0.20;0.10;;;;;;;5.68;100.00;100622.81;5055945;28;20454;-52
2021/03/04 07:33:48;;;;;;;0.30;0.20;;;;;;;5.85;100.00;100618.34;5055823;28;20935;-52
2021/03/04 07:36:19;;;;;;;0.83;0.83;;;;;;;6.04;100.00;100616.56;5055659;28;20470;-52
2021/03/04 07:39:02;;;;;;;0.30;0.20;;;;;;;6.19;100.00;100606.78;5043889;28;20484;-52
2021/03/04 07:41:40;;;;;;;0.30;0.20;;;;;;;6.37;100.00;100618.13;5031690;28;21039;-52
2021/03/04 07:44:07;;;;;;;0.30;0.20;;;;;;;6.52;100.00;100623.28;5055531;28;20450;-52
2021/03/04 07:46:35;;;;;;;0.30;0.20;;;;;;;6.68;100.00;100627.56;5050693;28;20505;-52
2021/03/04 07:49:07;;;;;;;0.30;0.20;;;;;;;6.88;100.00;100632.72;5055608;28;20931;-52
2021/03/04 07:51:44;;;;;;;0.30;0.20;;;;;;;6.89;100.00;100629.19;5055614;28;20504;-52
2021/03/04 07:54:11;;;;;;;2.10;2.10;;;;;;;7.15;100.00;100630.75;5055421;28;20454;-52
2021/03/04 07:56:37;;;;;;;0.30;0.10;;;;;;;7.12;100.00;100629.84;5055410;28;20842;-52
2021/03/04 07:59:12;;;;;;;0.30;0.20;;;;;;;7.58;100.00;100617.94;5055167;28;20552;-52
2021/03/04 08:01:43;;;;;;;0.30;0.20;;;;;;;7.57;100.00;100616.19;5055165;28;20931;-52
2021/03/04 08:04:23;;;;;;;0.30;0.20;;;;;;;7.59;100.00;100595.91;5055368;28;20485;-52
2021/03/04 08:06:53;;;;;;;1.80;1.70;;;;;;;7.76;100.00;100585.97;5055131;28;20894;-52
2021/03/04 08:09:31;;;;;;;2.47;2.20;;;;;;;7.95;99.48;100576.06;5055078;28;20447;-52
2021/03/04 08:12:08;;;;;;;0.30;0.20;;;;;;;8.04;98.68;100581.22;5055191;28;20924;-52
2021/03/04 08:14:35;;;;;;;0.30;0.20;;;;;;;8.16;96.57;100598.69;5055025;28;20496;-52
2021/03/04 08:17:05;;;;;;;0.30;0.20;;;;;;;8.27;94.72;100584.41;5055017;28;20474;-52
2021/03/04 08:19:33;;;;;;;0.30;0.20;;;;;;;8.57;95.17;100593.69;5054787;28;20487;-52
2021/03/04 08:22:08;;;;;;;0.77;0.77;;;;;;;8.68;94.36;100603.28;5055041;28;20482;-52
2021/03/04 08:24:37;;;;;;;0.30;0.20;;;;;;;8.50;95.47;100594.72;5055109;28;20449;-52
2021/03/04 08:27:05;;;;;;;2.63;2.57;;;;;;;8.65;95.16;100584.78;5054779;28;20467;-52
2021/03/04 08:29:33;;;;;;;0.40;0.40;;;;;;;8.74;94.20;100595.19;5053915;28;20453;-52
2021/03/04 08:32:03;;;;;;;0.30;0.20;;;;;;;8.78;94.28;100592.50;5054820;28;20451;-52
2021/03/04 08:34:37;;;;;;;0.30;0.20;;;;;;;8.81;93.27;100584.50;5054611;28;20447;-52
2021/03/04 08:37:05;;;;;;;0.30;0.20;;;;;;;9.09;93.15;100582.25;5054561;28;20470;-52
2021/03/04 08:39:34;;;;;;;3.23;3.00;;;;;;;8.82;93.66;100578.28;5041116;28;20486;-52
2021/03/04 08:42:06;;;;;;;0.30;0.20;;;;;;;9.18;92.51;100583.84;5054869;28;20504;-52
2021/03/04 08:44:45;;;;;;;0.30;0.20;;;;;;;9.19;92.73;100577.66;5054600;28;20505;-52
2021/03/04 08:47:14;;;;;;;0.30;0.20;;;;;;;9.31;92.89;100568.56;5049381;28;20991;-52
2021/03/04 08:49:52;;;;;;;0.30;0.20;;;;;;;9.18;92.20;100560.88;5054920;28;20497;-52
2021/03/04 08:52:22;;;;;;;0.30;0.20;;;;;;;9.20;91.59;100559.06;5054465;28;20447;-53
2021/03/04 08:54:50;;;;;;;0.30;0.20;;;;;;;9.52;91.00;100561.97;5054610;28;20500;-52
2021/03/04 08:57:26;;;;;;;3.40;1.13;;;;;;;9.78;90.59;100557.91;5054177;28;20516;-53
2021/03/04 09:00:11;;;;;;;0.30;0.20;;;;;;;9.79;90.05;100551.69;5054531;28;20455;-53
2021/03/04 09:02:41;;;;;;;1.30;0.67;;;;;;;9.69;90.33;100550.13;5032124;28;20492;-52
2021/03/04 09:05:08;;;;;;;0.30;0.20;;;;;;;10.02;88.92;100555.63;5054091;28;20450;-52
2021/03/04 09:07:44;;;;;;;0.30;0.20;;;;;;;9.95;88.64;100546.03;5054011;28;21029;-52
2021/03/04 09:10:13;;;;;;;0.63;0.60;;;;;;;10.32;88.48;100536.38;5054224;28;20870;-52
2021/03/04 09:12:43;;;;;;;0.30;0.20;;;;;;;10.39;87.62;100535.28;5053931;28;20451;-52
2021/03/04 09:15:11;;;;;;;1.50;1.40;;;;;;;10.55;86.61;100538.47;5053878;28;20454;-52
2021/03/04 09:17:39;;;;;;;0.40;0.30;;;;;;;10.60;87.26;100541.00;5053748;28;21011;-52
2021/03/04 09:20:06;;;;;;;1.27;1.27;;;;;;;10.59;87.09;100542.78;5053921;28;20478;-55
2021/03/04 09:22:35;;;;;;;0.50;0.50;;;;;;;10.69;86.83;100535.47;5054064;28;20942;-54
2021/03/04 09:25:02;;;;;;;0.30;0.20;;;;;;;10.79;86.85;100534.31;5053675;28;20496;-52
2021/03/04 09:27:29;;;;;;;0.30;0.23;;;;;;;10.77;85.41;100536.13;5053591;28;20891;-52
2021/03/04 09:29:55;;;;;;;0.30;0.20;;;;;;;10.93;85.52;100536.63;5053561;28;20920;-52
2021/03/04 09:32:32;;;;;;;0.30;0.20;;;;;;;11.08;85.63;100530.88;5053653;28;20794;-52
2021/03/04 09:34:59;;;;;;;0.30;0.20;;;;;;;11.21;84.96;100524.31;5027634;28;20529;-52
2021/03/04 09:37:28;;;;;;;0.40;0.30;;;;;;;11.30;84.30;100523.22;5052114;28;20473;-52
2021/03/04 09:39:55;;;;;;;0.30;0.20;;;;;;;11.45;82.74;100519.22;5040635;28;20848;-52
2021/03/04 09:42:42;;;;;;;0.30;0.20;;;;;;;11.68;82.01;100522.13;5053248;28;20462;-52
2021/03/04 09:45:11;;;;;;;0.60;0.60;;;;;;;11.76;81.93;100514.75;5050736;28;20989;-52
2021/03/04 09:47:43;;;;;;;0.30;0.20;;;;;;;11.90;81.41;100517.03;5051140;28;20490;-52
2021/03/04 09:50:25;;;;;;;0.30;0.20;;;;;;;11.97;80.99;100507.09;5053462;28;20447;-52
2021/03/04 09:53:06;;;;;;;0.30;0.20;;;;;;;12.15;80.01;100504.69;5053506;28;20454;-52
2021/03/04 09:55:40;;;;;;;0.30;0.20;;;;;;;12.21;80.55;100494.78;5053000;28;20454;-52
2021/03/04 09:58:11;;;;;;;0.40;0.37;;;;;;;12.35;79.81;100505.88;5052945;28;21026;-52
2021/03/04 10:00:38;;;;;;;0.40;0.40;;;;;;;12.25;79.87;100504.41;5039819;28;20451;-52
2021/03/04 10:03:09;;;;;;;0.30;0.20;;;;;;;12.37;80.04;100509.38;5051862;28;20451;-52
2021/03/04 10:05:48;;;;;;;0.30;0.20;;;;;;;12.22;79.90;100515.19;5052754;28;20447;-52
2021/03/04 10:08:16;;;;;;;0.30;0.20;;;;;;;12.32;79.80;100503.28;5052772;28;20825;-52
2021/03/04 10:10:43;;;;;;;0.30;0.20;;;;;;;12.30;79.45;100505.13;5052882;28;20450;-52
2021/03/04 10:13:10;;;;;;;0.30;0.20;;;;;;;12.08;79.68;100495.19;5053185;28;20455;-52
2021/03/04 10:15:42;;;;;;;0.40;0.30;;;;;;;12.18;79.79;100500.19;5052826;28;20532;-52
2021/03/04 10:18:13;;;;;;;0.83;0.83;;;;;;;12.33;79.54;100505.03;5052459;28;20864;-52
2021/03/04 10:20:45;;;;;;;0.30;0.20;;;;;;;12.57;79.21;100496.22;5052563;28;20450;-52
2021/03/04 10:23:13;;;;;;;0.30;0.20;;;;;;;12.52;78.69;100492.84;5052647;28;20530;-52
2021/03/04 10:25:41;;;;;;;3.53;0.90;;;;;;;12.80;79.00;100494.59;5052649;28;20474;-52
2021/03/04 10:28:07;;;;;;;0.40;0.20;;;;;;;12.94;78.60;100482.50;5052525;28;21006;-52
2021/03/04 10:30:35;;;;;;;1.60;1.50;;;;;;;12.97;78.43;100486.88;5052727;28;20457;-52
2021/03/04 10:33:05;;;;;;;0.30;0.20;;;;;;;12.85;77.56;100492.63;5052363;28;21221;-52
2021/03/04 10:35:32;;;;;;;0.43;0.43;;;;;;;13.09;78.30;100488.22;5052736;28;20583;-52
2021/03/04 10:37:58;;;;;;;0.30;0.20;;;;;;;12.97;79.03;100477.06;5046745;28;20541;-52
2021/03/04 10:40:24;;;;;;;0.40;0.20;;;;;;;12.98;78.92;100488.59;5044569;28;20849;-52
2021/03/04 10:42:51;;;;;;;0.40;0.30;;;;;;;13.05;78.73;100482.16;5052355;28;20446;-52
2021/03/04 10:45:18;;;;;;;0.40;0.30;;;;;;;13.07;78.56;100477.63;5048574;28;20523;-52
2021/03/04 10:47:50;;;;;;;15.43;3.03;;;;;;;13.05;78.36;100480.34;5051984;28;20478;-55
2021/03/04 10:50:21;;;;;;;0.80;0.80;;;;;;;13.08;79.00;100479.34;5052635;28;20450;-54
2021/03/04 10:52:48;;;;;;;0.30;0.20;;;;;;;13.18;78.44;100479.91;5051892;28;20501;-52
2021/03/04 10:55:28;;;;;;;1.07;1.07;;;;;;;13.25;78.88;100476.97;5052037;28;20442;-52
2021/03/04 10:57:54;;;;;;;0.30;0.20;;;;;;;13.32;78.15;100470.50;5051943;28;20903;-52
2021/03/04 11:00:21;;;;;;;0.73;0.67;;;;;;;13.60;78.75;100467.66;5051668;28;20452;-52
2021/03/04 11:02:47;;;;;;;0.30;0.20;;;;;;;13.52;77.58;100469.75;5050525;28;20853;-52
2021/03/04 11:05:13;;;;;;;0.40;0.30;;;;;;;13.62;77.67;100470.28;5051769;28;20446;-52
2021/03/04 11:07:40;;;;;;;0.37;0.30;;;;;;;13.39;76.99;100465.78;5051952;28;20463;-52
2021/03/04 11:10:07;;;;;;;0.40;0.40;;;;;;;13.70;77.08;100467.28;5051898;28;20451;-52
2021/03/04 11:12:45;;;;;;;0.30;0.23;;;;;;;13.89;77.14;100474.53;5051832;28;20447;-52
2021/03/04 11:15:12;;;;;;;0.30;0.20;;;;;;;13.67;76.17;100465.59;5052207;28;20454;-52
2021/03/04 11:17:38;;;;;;;0.30;0.20;;;;;;;14.08;76.50;100472.00;5051826;28;20467;-52
2021/03/04 11:20:05;;;;;;;0.30;0.20;;;;;;;14.08;76.28;100460.44;5048429;28;20483;-52
2021/03/04 11:22:32;;;;;;;0.40;0.30;;;;;;;14.22;75.87;100452.72;5042639;28;20450;-52
2021/03/04 11:24:58;;;;;;;0.30;0.20;;;;;;;14.00;75.76;100452.75;5051955;28;20936;-52
2021/03/04 11:27:25;;;;;;;0.30;0.20;;;;;;;13.87;76.15;100443.47;5051695;28;20967;-52
2021/03/04 11:29:51;;;;;;;0.40;0.40;;;;;;;13.99;76.01;100452.81;5051697;28;20443;-52
2021/03/04 11:32:18;;;;;;;0.30;0.20;;;;;;;13.90;75.38;100452.22;5050544;28;20450;-52
2021/03/04 11:34:44;;;;;;;0.30;0.20;;;;;;;14.05;76.43;100440.06;5051638;28;20453;-52
2021/03/04 11:37:11;;;;;;;0.40;0.30;;;;;;;14.03;76.70;100436.56;5051722;28;20478;-52